Time;durP1;ratioP1;P1;durP2;ratioP2;P2;SDS_P1;SDS_P2;PMS_P1;PMS_P2;Temp;Humidity;BMP_temperature;BMP_pressure;BME280_temperature;BME280_humidity;BME280_pressure;Samples;Min_cycle;Max_cycle;Signal;HPM_P1;HPM_P2
2022/03/07 00:01:26;;;;;;;;;;;-1.10;99.90;;;;;;5056792;28;20045;-87
2022/03/07 00:03:53;;;;;;;;;;;-1.00;99.90;;;;;;5056020;28;19979;-87
2022/03/07 00:06:18;;;;;;;;;;;-1.00;99.90;;;;;;5056757;28;20055;-88
2022/03/07 00:08:44;;;;;;;;;;;-1.10;99.90;;;;;;5074696;28;20006;-88
2022/03/07 00:11:10;;;;;;;;;;;-1.10;99.90;;;;;;5055360;28;19916;-87
2022/03/07 00:13:35;;;;;;;;;;;-1.10;99.90;;;;;;5055888;28;20286;-86
2022/03/07 00:16:02;;;;;;;;;;;-1.10;99.90;;;;;;5056186;28;20087;-88
2022/03/07 00:18:27;;;;;;;;;;;-1.20;99.90;;;;;;5055995;28;20037;-88
2022/03/07 00:20:53;;;;;;;;;;;-1.20;99.90;;;;;;5058984;28;19919;-87
2022/03/07 00:23:19;;;;;;;;;;;-1.20;99.90;;;;;;5072477;28;19912;-87
2022/03/07 00:25:45;;;;;;;;;;;-1.20;99.90;;;;;;5077157;28;20268;-85
2022/03/07 00:28:10;;;;;;;;;;;-1.20;99.90;;;;;;5111856;28;20062;-87
2022/03/07 00:30:36;;;;;;;;;;;-1.30;99.90;;;;;;5059894;28;19915;-86
2022/03/07 00:33:02;;;;;;;;;;;-1.20;99.90;;;;;;5060327;28;19998;-85
2022/03/07 00:35:27;;;;;;;;;;;-1.30;99.90;;;;;;5060368;28;20136;-87
2022/03/07 00:37:53;;;;;;;;;;;-1.30;99.90;;;;;;5060912;28;19908;-86
2022/03/07 00:40:19;;;;;;;;;;;-1.40;99.90;;;;;;5059325;28;19915;-86
2022/03/07 00:42:45;;;;;;;;;;;-1.40;99.90;;;;;;5053397;28;20034;-85
2022/03/07 00:45:12;;;;;;;;;;;-1.40;99.90;;;;;;5066438;28;20038;-86
2022/03/07 00:47:37;;;;;;;;;;;-1.40;99.90;;;;;;5059151;28;19911;-87
2022/03/07 00:50:04;;;;;;;;;;;-1.40;99.90;;;;;;5089708;28;20266;-85
2022/03/07 00:52:30;;;;;;;;;;;-1.40;99.90;;;;;;5075759;28;19947;-86
2022/03/07 00:54:56;;;;;;;;;;;-1.50;99.90;;;;;;5059179;28;20403;-84
2022/03/07 00:57:21;;;;;;;;;;;-1.50;99.90;;;;;;5067268;28;20048;-85
2022/03/07 00:59:48;;;;;;;;;;;-1.50;99.90;;;;;;5048916;28;20429;-87
2022/03/07 01:02:14;;;;;;;;;;;-1.50;99.90;;;;;;5056134;28;19912;-83
2022/03/07 01:04:40;;;;;;;;;;;-1.60;99.90;;;;;;5055870;28;20392;-88
2022/03/07 01:07:08;;;;;;;;;;;-1.60;99.90;;;;;;5056913;28;19916;-86
2022/03/07 01:09:34;;;;;;;;;;;-1.50;99.90;;;;;;5068766;28;19915;-84
2022/03/07 01:12:00;;;;;;;;;;;-1.50;99.90;;;;;;5061394;28;19912;-86
2022/03/07 01:14:25;;;;;;;;;;;-1.50;99.90;;;;;;5091009;28;20035;-81
2022/03/07 01:16:51;;;;;;;;;;;-1.60;99.90;;;;;;5070016;28;19916;-83
2022/03/07 01:19:17;;;;;;;;;;;-1.60;99.90;;;;;;5062944;28;19920;-86
2022/03/07 01:21:42;;;;;;;;;;;-1.70;99.90;;;;;;5066625;28;20042;-85
2022/03/07 01:24:08;;;;;;;;;;;-1.60;99.90;;;;;;5076099;28;20120;-84
2022/03/07 01:26:35;;;;;;;;;;;-1.70;99.90;;;;;;5058140;28;20161;-88
2022/03/07 01:29:02;;;;;;;;;;;-1.70;99.90;;;;;;5058448;28;19908;-85
2022/03/07 01:31:27;;;;;;;;;;;-1.80;99.90;;;;;;5057701;28;20504;-86
2022/03/07 01:33:53;;;;;;;;;;;-1.90;99.90;;;;;;5057653;28;19915;-84
2022/03/07 01:36:19;;;;;;;;;;;-1.90;99.90;;;;;;5074423;28;19916;-85
2022/03/07 01:38:45;;;;;;;;;;;-1.90;99.90;;;;;;5058494;28;20042;-83
2022/03/07 01:41:11;;;;;;;;;;;-2.00;99.90;;;;;;5058173;28;19968;-86
2022/03/07 01:43:36;;;;;;;;;;;-2.00;99.90;;;;;;5074021;28;20062;-85
2022/03/07 01:46:02;;;;;;;;;;;-2.00;99.90;;;;;;5072495;28;20050;-85
2022/03/07 01:48:28;;;;;;;;;;;-2.00;99.90;;;;;;5056014;28;20046;-84
2022/03/07 01:50:54;;;;;;;;;;;-2.00;99.90;;;;;;5084730;28;20551;-85
2022/03/07 01:53:20;;;;;;;;;;;-2.00;99.90;;;;;;5070779;28;20048;-84
2022/03/07 01:55:48;;;;;;;;;;;-2.10;99.90;;;;;;5056533;28;19915;-82
2022/03/07 01:58:13;;;;;;;;;;;-2.20;99.90;;;;;;5073455;28;19919;-85
2022/03/07 02:00:39;;;;;;;;;;;-2.20;99.90;;;;;;5056601;28;20872;-84
2022/03/07 02:03:05;;;;;;;;;;;-2.20;99.90;;;;;;5057011;28;19912;-84
2022/03/07 02:05:40;;;;;;;;;;;-2.20;99.90;;;;;;5072664;28;19915;-86
2022/03/07 02:08:12;;;;;;;;;;;-2.20;99.90;;;;;;5056468;28;20112;-85
2022/03/07 02:10:48;;;;;;;;;;;-2.20;99.90;;;;;;5057590;28;19912;-85
2022/03/07 02:13:16;;;;;;;;;;;-2.20;99.90;;;;;;5073085;28;19916;-86
2022/03/07 02:15:53;;;;;;;;;;;-2.20;99.90;;;;;;5057485;28;19959;-84
2022/03/07 02:18:21;;;;;;;;;;;-2.20;99.90;;;;;;5056183;28;20037;-86
2022/03/07 02:20:54;;;;;;;;;;;-2.10;99.90;;;;;;5056137;28;19908;-85
2022/03/07 02:23:20;;;;;;;;;;;-2.20;99.90;;;;;;5056411;28;19912;-87
2022/03/07 02:25:47;;;;;;;;;;;-2.10;99.90;;;;;;5067021;28;19915;-84
2022/03/07 02:28:15;;;;;;;;;;;-2.10;99.90;;;;;;5087890;28;19912;-84
2022/03/07 02:30:42;;;;;;;;;;;-2.10;99.90;;;;;;5037761;28;20011;-84
2022/03/07 02:33:12;;;;;;;;;;;-2.20;99.90;;;;;;5074417;28;20392;-86
2022/03/07 02:35:38;;;;;;;;;;;-2.20;99.90;;;;;;5072628;28;20070;-86
2022/03/07 02:38:11;;;;;;;;;;;-2.20;99.90;;;;;;5083275;28;20072;-84
2022/03/07 02:40:36;;;;;;;;;;;-2.20;99.90;;;;;;5077026;28;20384;-86
2022/03/07 02:43:02;;;;;;;;;;;-2.20;99.90;;;;;;5106606;28;20136;-83
2022/03/07 02:45:28;;;;;;;;;;;-2.20;99.90;;;;;;5060416;28;20031;-84
2022/03/07 02:47:54;;;;;;;;;;;-2.20;99.90;;;;;;5053772;28;19908;-86
2022/03/07 02:50:19;;;;;;;;;;;-2.20;99.90;;;;;;5073230;28;19919;-85
2022/03/07 02:52:45;;;;;;;;;;;-2.20;99.90;;;;;;5057120;28;19999;-84
2022/03/07 02:55:10;;;;;;;;;;;-2.20;99.90;;;;;;5057438;28;19916;-86
2022/03/07 02:57:36;;;;;;;;;;;-2.20;99.90;;;;;;5056488;28;19916;-86
2022/03/07 03:00:02;;;;;;;;;;;-2.30;99.90;;;;;;5056429;28;20351;-87
2022/03/07 03:02:28;;;;;;;;;;;-2.30;99.90;;;;;;5057287;28;19908;-86
2022/03/07 03:04:54;;;;;;;;;;;-2.30;99.90;;;;;;5056886;28;20025;-84
2022/03/07 03:07:19;;;;;;;;;;;-2.40;99.90;;;;;;5084719;28;20437;-84
2022/03/07 03:09:45;;;;;;;;;;;-2.40;99.90;;;;;;5085598;28;20052;-82
2022/03/07 03:12:11;;;;;;;;;;;-2.40;99.90;;;;;;5068548;28;20052;-84
2022/03/07 03:14:38;;;;;;;;;;;-2.40;99.90;;;;;;5069782;28;19904;-83
2022/03/07 03:17:03;;;;;;;;;;;-2.40;99.90;;;;;;5054439;28;19916;-84
2022/03/07 03:19:29;;;;;;;;;;;-2.40;99.90;;;;;;5053469;28;19914;-82
2022/03/07 03:21:54;;;;;;;;;;;-2.40;99.90;;;;;;5072127;28;20043;-83
2022/03/07 03:24:20;;;;;;;;;;;-2.40;99.90;;;;;;5070795;28;19919;-84
2022/03/07 03:26:46;;;;;;;;;;;-2.50;99.90;;;;;;5068245;28;19908;-85
2022/03/07 03:29:12;;;;;;;;;;;-2.50;99.90;;;;;;5059215;28;20027;-86
2022/03/07 03:31:37;;;;;;;;;;;-2.50;99.90;;;;;;5064543;28;20313;-84
2022/03/07 03:34:03;;;;;;;;;;;-2.50;99.90;;;;;;5042417;28;20119;-84
2022/03/07 03:36:28;;;;;;;;;;;-2.60;99.90;;;;;;5071792;28;20386;-85
2022/03/07 03:38:54;;;;;;;;;;;-2.60;99.90;;;;;;5074326;28;19908;-84
2022/03/07 03:41:20;;;;;;;;;;;-2.60;99.90;;;;;;5080762;28;20047;-84
2022/03/07 03:43:45;;;;;;;;;;;-2.60;99.90;;;;;;5051816;28;20042;-85
2022/03/07 03:46:11;;;;;;;;;;;-2.60;99.90;;;;;;5069335;28;20046;-84
2022/03/07 03:48:36;;;;;;;;;;;-2.60;99.90;;;;;;5068915;28;19909;-83
2022/03/07 03:51:02;;;;;;;;;;;-2.60;99.90;;;;;;5068923;28;19964;-85
2022/03/07 03:53:28;;;;;;;;;;;-2.60;99.90;;;;;;5071200;28;20424;-85
2022/03/07 03:55:54;;;;;;;;;;;-2.60;99.90;;;;;;5089887;28;20039;-85
2022/03/07 03:58:20;;;;;;;;;;;-2.70;99.90;;;;;;5074054;28;19914;-86
2022/03/07 04:00:45;;;;;;;;;;;-2.70;99.90;;;;;;5072747;28;19913;-85
2022/03/07 04:03:11;;;;;;;;;;;-2.70;99.90;;;;;;5072878;28;19912;-85
2022/03/07 04:05:36;;;;;;;;;;;-2.70;99.90;;;;;;5071918;28;20071;-85
2022/03/07 04:08:02;;;;;;;;;;;-2.80;99.90;;;;;;5072828;28;20036;-85
2022/03/07 04:10:27;;;;;;;;;;;-2.80;99.90;;;;;;5072617;28;20280;-85
2022/03/07 04:12:53;;;;;;;;;;;-2.80;99.90;;;;;;5072631;28;19908;-85
2022/03/07 04:15:19;;;;;;;;;;;-2.70;99.90;;;;;;5072290;28;20038;-85
2022/03/07 04:17:44;;;;;;;;;;;-2.70;99.90;;;;;;5071946;28;19912;-87
2022/03/07 04:20:11;;;;;;;;;;;-2.70;99.90;;;;;;5072487;28;19912;-85
2022/03/07 04:22:37;;;;;;;;;;;-2.70;99.90;;;;;;5055819;28;20365;-85
2022/03/07 04:25:03;;;;;;;;;;;-2.70;99.90;;;;;;5089394;28;20003;-86
2022/03/07 04:27:29;;;;;;;;;;;-2.80;99.90;;;;;;5088778;28;19915;-86
2022/03/07 04:29:57;;;;;;;;;;;-2.80;99.90;;;;;;5071630;28;20039;-85
2022/03/07 04:32:23;;;;;;;;;;;-2.80;99.90;;;;;;5089228;28;20555;-84
2022/03/07 04:34:49;;;;;;;;;;;-2.80;99.90;;;;;;5088827;28;20043;-85
2022/03/07 04:37:14;;;;;;;;;;;-2.90;99.90;;;;;;5072040;28;20045;-85
2022/03/07 04:39:40;;;;;;;;;;;-2.90;99.90;;;;;;5072219;28;19928;-84
2022/03/07 04:42:06;;;;;;;;;;;-2.90;99.90;;;;;;5089055;28;20018;-84
2022/03/07 04:44:31;;;;;;;;;;;-2.90;99.90;;;;;;5070847;28;20144;-84
2022/03/07 04:46:57;;;;;;;;;;;-2.90;99.90;;;;;;5070613;28;19920;-84
2022/03/07 04:49:22;;;;;;;;;;;-2.90;99.90;;;;;;5070863;28;19918;-86
2022/03/07 04:51:49;;;;;;;;;;;-2.90;99.90;;;;;;5071680;28;20379;-84
2022/03/07 04:54:15;;;;;;;;;;;-3.00;99.90;;;;;;5071314;28;19951;-84
2022/03/07 04:56:43;;;;;;;;;;;-3.00;99.90;;;;;;5088050;28;20047;-84
2022/03/07 04:59:13;;;;;;;;;;;-3.00;99.90;;;;;;5088187;28;20046;-85
2022/03/07 05:01:41;;;;;;;;;;;-3.00;99.90;;;;;;5070174;28;20046;-83
2022/03/07 05:04:07;;;;;;;;;;;-3.00;99.90;;;;;;5070567;28;19912;-84
2022/03/07 05:06:34;;;;;;;;;;;-3.00;99.90;;;;;;5071147;28;20042;-83
2022/03/07 05:09:00;;;;;;;;;;;-3.00;99.90;;;;;;5087942;28;20049;-85
2022/03/07 05:11:25;;;;;;;;;;;-3.10;99.90;;;;;;5071617;28;19916;-83
2022/03/07 05:13:51;;;;;;;;;;;-3.10;99.90;;;;;;5072798;28;19908;-84
2022/03/07 05:16:17;;;;;;;;;;;-3.10;99.90;;;;;;5072175;28;19920;-84
2022/03/07 05:18:43;;;;;;;;;;;-3.20;99.90;;;;;;5058339;28;20060;-85
2022/03/07 05:21:10;;;;;;;;;;;-3.20;99.90;;;;;;5093551;28;20052;-83
2022/03/07 05:23:35;;;;;;;;;;;-3.20;99.90;;;;;;5089096;28;19908;-84
2022/03/07 05:26:01;;;;;;;;;;;-3.30;99.90;;;;;;5083500;28;20040;-84
2022/03/07 05:28:27;;;;;;;;;;;-3.20;99.90;;;;;;5089110;28;19999;-86
2022/03/07 05:30:52;;;;;;;;;;;-3.20;99.90;;;;;;5072751;28;20036;-84
2022/03/07 05:33:18;;;;;;;;;;;-3.20;99.90;;;;;;5093341;28;19963;-84
2022/03/07 05:35:43;;;;;;;;;;;-3.20;99.90;;;;;;5095019;28;19900;-85
2022/03/07 05:38:09;;;;;;;;;;;-3.30;99.90;;;;;;5074345;28;19913;-84
2022/03/07 05:40:35;;;;;;;;;;;-3.30;99.90;;;;;;5086499;28;19915;-84
2022/03/07 05:43:01;;;;;;;;;;;-3.30;99.90;;;;;;5056112;28;19916;-84
2022/03/07 05:45:26;;;;;;;;;;;-3.30;99.90;;;;;;5090088;28;20375;-85
2022/03/07 05:47:52;;;;;;;;;;;-3.30;99.90;;;;;;5073452;28;20124;-83
2022/03/07 05:50:18;;;;;;;;;;;-3.30;99.90;;;;;;5073284;28;19919;-83
2022/03/07 05:52:43;;;;;;;;;;;-3.40;99.90;;;;;;5071613;28;19908;-85
2022/03/07 05:55:10;;;;;;;;;;;-3.40;99.90;;;;;;5088119;28;19915;-85
2022/03/07 05:57:35;;;;;;;;;;;-3.40;99.90;;;;;;5088696;28;20011;-84
2022/03/07 06:00:03;;;;;;;;;;;-3.50;99.90;;;;;;5057289;28;20485;-84
2022/03/07 06:02:30;;;;;;;;;;;-3.50;99.90;;;;;;5074724;28;19918;-86
2022/03/07 06:04:56;;;;;;;;;;;-3.60;99.90;;;;;;5074586;28;19918;-86
2022/03/07 06:07:21;;;;;;;;;;;-3.60;99.90;;;;;;5058434;28;20035;-84
2022/03/07 06:09:47;;;;;;;;;;;-3.60;99.90;;;;;;5058036;28;20500;-84
2022/03/07 06:12:12;;;;;;;;;;;-3.60;99.90;;;;;;5057431;28;20048;-85
2022/03/07 06:14:38;;;;;;;;;;;-3.50;99.90;;;;;;5074429;28;19908;-85
2022/03/07 06:17:04;;;;;;;;;;;-3.50;99.90;;;;;;5059283;28;20106;-83
2022/03/07 06:19:29;;;;;;;;;;;-3.50;99.90;;;;;;5061652;28;20399;-84
2022/03/07 06:21:55;;;;;;;;;;;-3.40;99.90;;;;;;5061645;28;19959;-84
2022/03/07 06:24:21;;;;;;;;;;;-3.40;99.90;;;;;;5059007;28;20481;-85
2022/03/07 06:26:48;;;;;;;;;;;-3.30;99.90;;;;;;5075739;28;20472;-85
2022/03/07 06:29:13;;;;;;;;;;;-3.30;99.90;;;;;;5058540;28;19915;-85
2022/03/07 06:31:39;;;;;;;;;;;-3.20;99.90;;;;;;5058183;28;20010;-85
2022/03/07 06:34:05;;;;;;;;;;;-3.10;99.90;;;;;;5057348;28;20064;-85
2022/03/07 06:36:42;;;;;;;;;;;-3.00;99.90;;;;;;5059298;28;19915;-84
2022/03/07 06:39:08;;;;;;;;;;;-3.00;99.90;;;;;;5074640;28;20052;-85
2022/03/07 06:41:33;;;;;;;;;;;-2.90;99.90;;;;;;5057885;28;20092;-86
2022/03/07 06:44:02;;;;;;;;;;;-2.90;99.90;;;;;;5057186;28;19915;-85
2022/03/07 06:46:28;;;;;;;;;;;-2.90;99.90;;;;;;5092533;28;20046;-86
2022/03/07 06:48:54;;;;;;;;;;;-2.90;99.90;;;;;;5057434;28;19961;-85
2022/03/07 06:51:20;;;;;;;;;;;-2.80;99.90;;;;;;5057038;28;20456;-85
2022/03/07 06:53:46;;;;;;;;;;;-2.80;99.90;;;;;;5073751;28;20356;-86
2022/03/07 06:56:12;;;;;;;;;;;-2.70;99.90;;;;;;5073775;28;20045;-86
2022/03/07 06:58:37;;;;;;;;;;;-2.70;99.90;;;;;;5056697;28;20042;-85
2022/03/07 07:01:03;;;;;;;;;;;-2.60;99.90;;;;;;5056831;28;20027;-85
2022/03/07 07:03:28;;;;;;;;;;;-2.60;99.90;;;;;;5070738;28;19907;-86
2022/03/07 07:05:54;;;;;;;;;;;-2.50;99.90;;;;;;5067431;28;20343;-85
2022/03/07 07:08:20;;;;;;;;;;;-2.50;99.90;;;;;;5078162;28;20535;-85
2022/03/07 07:10:45;;;;;;;;;;;-2.40;99.90;;;;;;5053244;28;20053;-85
2022/03/07 07:13:14;;;;;;;;;;;-2.40;99.90;;;;;;5070070;28;19909;-84
2022/03/07 07:15:41;;;;;;;;;;;-2.30;99.90;;;;;;5086226;28;20239;-85
2022/03/07 07:18:07;;;;;;;;;;;-2.20;99.90;;;;;;5087001;28;20040;-84
2022/03/07 07:20:33;;;;;;;;;;;-2.20;99.90;;;;;;5070501;28;20541;-85
2022/03/07 07:22:58;;;;;;;;;;;-2.20;99.90;;;;;;5070152;28;19954;-86
2022/03/07 07:25:24;;;;;;;;;;;-2.10;99.90;;;;;;5069319;28;19915;-84
2022/03/07 07:27:50;;;;;;;;;;;-2.00;99.90;;;;;;5069164;28;20068;-85
2022/03/07 07:30:15;;;;;;;;;;;-2.00;99.90;;;;;;5069758;28;19912;-85
2022/03/07 07:32:41;;;;;;;;;;;-2.00;99.90;;;;;;5070036;28;19967;-84
2022/03/07 07:35:08;;;;;;;;;;;-2.00;99.90;;;;;;5089046;28;19981;-85
2022/03/07 07:37:33;;;;;;;;;;;-1.90;99.90;;;;;;5072001;28;19927;-85
2022/03/07 07:39:59;;;;;;;;;;;-1.80;99.90;;;;;;5056591;28;19908;-85
2022/03/07 07:42:25;;;;;;;;;;;-1.70;99.90;;;;;;5076545;28;20046;-84
2022/03/07 07:44:53;;;;;;;;;;;-1.60;99.90;;;;;;5086546;28;20490;-85
2022/03/07 07:47:19;;;;;;;;;;;-1.80;99.90;;;;;;5061497;28;19912;-87
2022/03/07 07:49:47;;;;;;;;;;;-1.90;99.90;;;;;;5060257;28;19952;-86
2022/03/07 07:52:12;;;;;;;;;;;-2.20;99.90;;;;;;5082284;28;20621;-86
2022/03/07 07:54:38;;;;;;;;;;;-2.30;99.90;;;;;;5056530;28;19921;-84
2022/03/07 07:57:07;;;;;;;;;;;-2.30;99.90;;;;;;5056316;28;19938;-85
2022/03/07 07:59:33;;;;;;;;;;;-2.20;99.90;;;;;;5088247;28;19956;-84
2022/03/07 08:01:58;;;;;;;;;;;-2.20;99.90;;;;;;5091538;28;20121;-83
2022/03/07 08:04:24;;;;;;;;;;;-2.20;99.90;;;;;;5057680;28;20042;-83
2022/03/07 08:06:50;;;;;;;;;;;-2.20;99.90;;;;;;5072942;28;19908;-83
2022/03/07 08:09:15;;;;;;;;;;;-2.20;99.90;;;;;;5071004;28;19916;-84
2022/03/07 08:11:44;;;;;;;;;;;-2.20;99.90;;;;;;5068047;28;20094;-84
2022/03/07 08:14:10;;;;;;;;;;;-2.20;99.90;;;;;;5058412;28;19908;-84
2022/03/07 08:16:35;;;;;;;;;;;-2.10;99.90;;;;;;5056339;28;20361;-84
2022/03/07 08:19:01;;;;;;;;;;;-2.10;99.90;;;;;;5055931;28;19908;-85
2022/03/07 08:21:27;;;;;;;;;;;-2.00;99.90;;;;;;5072742;28;19912;-84
2022/03/07 08:23:54;;;;;;;;;;;-1.90;99.90;;;;;;5056143;28;20379;-83
2022/03/07 08:26:19;;;;;;;;;;;-1.90;99.90;;;;;;5056701;28;19908;-83
2022/03/07 08:28:45;;;;;;;;;;;-1.80;99.90;;;;;;5073107;28;19908;-84
2022/03/07 08:31:11;;;;;;;;;;;-1.70;99.90;;;;;;5057091;28;20145;-84
2022/03/07 08:33:36;;;;;;;;;;;-1.60;99.90;;;;;;5092341;28;20394;-83
2022/03/07 08:36:02;;;;;;;;;;;-1.60;99.90;;;;;;5075274;28;20402;-83
2022/03/07 08:38:28;;;;;;;;;;;-1.60;99.90;;;;;;5073600;28;19919;-84
2022/03/07 08:40:54;;;;;;;;;;;-1.60;99.90;;;;;;5084805;28;19937;-83
2022/03/07 08:43:20;;;;;;;;;;;-1.40;99.90;;;;;;5067520;28;20527;-85
2022/03/07 08:45:45;;;;;;;;;;;-1.30;99.90;;;;;;5077636;28;19915;-84
2022/03/07 08:48:11;;;;;;;;;;;-1.30;99.90;;;;;;5078491;28;20047;-86
2022/03/07 08:50:36;;;;;;;;;;;-1.20;99.90;;;;;;5098479;28;20318;-84
2022/03/07 08:53:02;;;;;;;;;;;-1.20;99.90;;;;;;5079906;28;19911;-84
2022/03/07 08:55:28;;;;;;;;;;;-1.00;99.90;;;;;;5072726;28;19955;-84
2022/03/07 08:57:53;;;;;;;;;;;-0.90;99.90;;;;;;5073129;28;19923;-85
2022/03/07 09:00:19;;;;;;;;;;;-0.80;99.90;;;;;;5090326;28;20103;-85
2022/03/07 09:02:45;;;;;;;;;;;-0.80;99.90;;;;;;5090994;28;19913;-83
2022/03/07 09:05:11;;;;;;;;;;;-0.70;99.90;;;;;;5078630;28;20369;-84
2022/03/07 09:07:37;;;;;;;;;;;-0.70;99.90;;;;;;5091524;28;19912;-87
2022/03/07 09:10:06;;;;;;;;;;;-0.80;99.90;;;;;;5075241;28;20353;-86
2022/03/07 09:12:32;;;;;;;;;;;-0.80;99.90;;;;;;5100978;28;19911;-85
2022/03/07 09:14:58;;;;;;;;;;;-0.80;99.90;;;;;;5097775;28;19912;-85
2022/03/07 09:17:24;;;;;;;;;;;-0.60;99.90;;;;;;5096926;28;19922;-84
2022/03/07 09:19:50;;;;;;;;;;;-0.60;99.90;;;;;;5080723;28;19912;-86
2022/03/07 09:22:16;;;;;;;;;;;-0.20;99.90;;;;;;5078908;28;19915;-86
2022/03/07 09:24:42;;;;;;;;;;;0.10;99.90;;;;;;5079760;28;20343;-86
2022/03/07 09:27:08;;;;;;;;;;;0.60;99.90;;;;;;5080237;28;19947;-85
2022/03/07 09:29:33;;;;;;;;;;;1.10;99.90;;;;;;5096938;28;19908;-88
2022/03/07 09:31:59;;;;;;;;;;;1.60;99.90;;;;;;5096969;28;20094;-85
2022/03/07 09:34:25;;;;;;;;;;;1.80;99.90;;;;;;5096678;28;19918;-85
2022/03/07 09:36:50;;;;;;;;;;;1.70;99.90;;;;;;5079368;28;19926;-85
2022/03/07 09:39:16;;;;;;;;;;;2.30;99.40;;;;;;5095435;28;20105;-87
2022/03/07 09:41:42;;;;;;;;;;;2.60;97.80;;;;;;5094815;28;19912;-86
2022/03/07 09:44:08;;;;;;;;;;;2.70;96.50;;;;;;5079172;28;20161;-85
2022/03/07 09:46:34;;;;;;;;;;;3.10;96.80;;;;;;5072426;28;20032;-86
2022/03/07 09:48:59;;;;;;;;;;;3.70;94.40;;;;;;5072746;28;19919;-87
2022/03/07 09:51:25;;;;;;;;;;;3.90;92.20;;;;;;5072010;28;19959;-86
2022/03/07 09:53:51;;;;;;;;;;;4.10;91.40;;;;;;5071566;28;19913;-87
2022/03/07 09:56:22;;;;;;;;;;;4.40;89.00;;;;;;5071936;28;20526;-86
2022/03/07 09:58:48;;;;;;;;;;;4.20;88.80;;;;;;5071268;28;20003;-83
2022/03/07 10:01:18;;;;;;;;;;;3.50;88.30;;;;;;5071502;28;20000;-85
2022/03/07 10:03:45;;;;;;;;;;;3.00;90.10;;;;;;5088967;28;20373;-85
2022/03/07 10:06:14;;;;;;;;;;;3.00;90.60;;;;;;5058020;28;19919;-84
2022/03/07 10:08:50;;;;;;;;;;;3.20;91.80;;;;;;5074471;28;19919;-86
2022/03/07 10:11:15;;;;;;;;;;;3.80;91.30;;;;;;5057920;28;19930;-84
2022/03/07 10:13:48;;;;;;;;;;;4.00;86.70;;;;;;5058596;28;20044;-85
2022/03/07 10:16:14;;;;;;;;;;;4.10;86.30;;;;;;5059631;28;19923;-83
2022/03/07 10:18:47;;;;;;;;;;;4.00;84.70;;;;;;5058585;28;20276;-85
2022/03/07 10:21:20;;;;;;;;;;;3.70;85.40;;;;;;5058027;28;19919;-86
2022/03/07 10:23:56;;;;;;;;;;;3.90;85.10;;;;;;5058454;28;19908;-86
2022/03/07 10:26:22;;;;;;;;;;;4.00;84.50;;;;;;5057885;28;19908;-86
2022/03/07 10:28:51;;;;;;;;;;;3.60;84.30;;;;;;5057854;28;20411;-85
2022/03/07 10:31:17;;;;;;;;;;;2.90;87.40;;;;;;5057035;28;20045;-85
2022/03/07 10:33:44;;;;;;;;;;;2.60;89.60;;;;;;5058738;28;20141;-87
2022/03/07 10:36:09;;;;;;;;;;;2.40;89.30;;;;;;5058739;28;20046;-85
2022/03/07 10:38:35;;;;;;;;;;;2.80;90.20;;;;;;5058045;28;20045;-87
2022/03/07 10:41:01;;;;;;;;;;;3.40;89.00;;;;;;5057078;28;19908;-86
2022/03/07 10:43:28;;;;;;;;;;;2.80;88.50;;;;;;5057631;28;20427;-86
2022/03/07 10:45:58;;;;;;;;;;;3.10;90.60;;;;;;5058903;28;20048;-86
2022/03/07 10:48:29;;;;;;;;;;;3.60;87.60;;;;;;5079947;28;19912;-85
2022/03/07 10:50:56;;;;;;;;;;;3.60;86.80;;;;;;5081014;28;20038;-85
2022/03/07 10:53:21;;;;;;;;;;;3.70;86.60;;;;;;5082407;28;20280;-86
2022/03/07 10:55:51;;;;;;;;;;;3.40;85.60;;;;;;5083390;28;19912;-85
2022/03/07 10:58:17;;;;;;;;;;;3.20;87.30;;;;;;5051822;28;20254;-86
2022/03/07 11:00:50;;;;;;;;;;;3.20;85.40;;;;;;5081812;28;20042;-83
2022/03/07 11:03:17;;;;;;;;;;;3.00;87.50;;;;;;5056110;28;19908;-84
2022/03/07 11:05:43;;;;;;;;;;;2.90;89.80;;;;;;5057335;28;19916;-84
2022/03/07 11:08:14;;;;;;;;;;;3.00;90.20;;;;;;5074579;28;19995;-85
2022/03/07 11:10:45;;;;;;;;;;;2.90;90.20;;;;;;5074545;28;19916;-86
2022/03/07 11:13:11;;;;;;;;;;;3.10;90.70;;;;;;5090753;28;20489;-86
2022/03/07 11:15:37;;;;;;;;;;;3.30;89.30;;;;;;5073920;28;20044;-86
2022/03/07 11:18:04;;;;;;;;;;;3.50;89.40;;;;;;5073667;28;20276;-84
2022/03/07 11:20:30;;;;;;;;;;;3.30;89.10;;;;;;5090263;28;20038;-87
2022/03/07 11:22:55;;;;;;;;;;;3.20;88.00;;;;;;5057540;28;20447;-84
2022/03/07 11:25:21;;;;;;;;;;;3.10;88.20;;;;;;5071886;28;19931;-87
2022/03/07 11:27:47;;;;;;;;;;;3.00;89.50;;;;;;5072342;28;19943;-84
2022/03/07 11:30:14;;;;;;;;;;;3.30;88.40;;;;;;5073844;28;20143;-85
2022/03/07 11:32:39;;;;;;;;;;;3.90;90.00;;;;;;5058383;28;20224;-87
2022/03/07 11:35:07;;;;;;;;;;;4.40;88.30;;;;;;5057732;28;19915;-87
2022/03/07 11:37:33;;;;;;;;;;;4.70;85.70;;;;;;5059490;28;19920;-84
2022/03/07 11:39:59;;;;;;;;;;;4.80;84.20;;;;;;5059808;28;19923;-87
2022/03/07 11:42:36;;;;;;;;;;;4.90;82.80;;;;;;5060193;28;20112;-85
2022/03/07 11:45:10;;;;;;;;;;;5.30;81.90;;;;;;5081303;28;19951;-86
2022/03/07 11:47:36;;;;;;;;;;;5.10;82.30;;;;;;5058012;28;19924;-87
2022/03/07 11:50:04;;;;;;;;;;;5.30;81.00;;;;;;5070885;28;20141;-85
2022/03/07 11:52:29;;;;;;;;;;;5.10;80.30;;;;;;5057048;28;19962;-86
2022/03/07 11:54:56;;;;;;;;;;;5.30;81.10;;;;;;5074557;28;20362;-86
2022/03/07 11:57:32;;;;;;;;;;;5.00;79.00;;;;;;5056761;28;20060;-85
2022/03/07 12:00:08;;;;;;;;;;;5.20;79.10;;;;;;5056916;28;19969;-88
2022/03/07 12:02:51;;;;;;;;;;;5.50;80.20;;;;;;5057380;28;20645;-86
2022/03/07 12:05:21;;;;;;;;;;;5.70;79.60;;;;;;5056461;28;19915;-86
2022/03/07 12:07:47;;;;;;;;;;;6.00;79.20;;;;;;5073684;28;20045;-88
2022/03/07 12:10:13;;;;;;;;;;;5.70;77.10;;;;;;5073535;28;20390;-88
2022/03/07 12:12:39;;;;;;;;;;;5.60;80.30;;;;;;5073260;28;20041;-87
2022/03/07 12:15:08;;;;;;;;;;;5.80;79.30;;;;;;5058817;28;20041;-87
2022/03/07 12:17:34;;;;;;;;;;;5.40;77.50;;;;;;5060528;28;19916;-86
2022/03/07 12:20:04;;;;;;;;;;;5.70;76.40;;;;;;5077670;28;19934;-86
2022/03/07 12:22:30;;;;;;;;;;;5.60;76.70;;;;;;5058978;28;20488;-87
2022/03/07 12:25:00;;;;;;;;;;;5.20;76.80;;;;;;5071412;28;20303;-86
2022/03/07 12:27:26;;;;;;;;;;;5.00;79.10;;;;;;5065974;28;20045;-87
2022/03/07 12:29:52;;;;;;;;;;;5.40;80.50;;;;;;5062892;28;19943;-88
2022/03/07 12:32:18;;;;;;;;;;;5.80;80.50;;;;;;5078263;28;19934;-87
2022/03/07 12:34:44;;;;;;;;;;;5.50;78.30;;;;;;5077246;28;20818;-86
2022/03/07 12:37:18;;;;;;;;;;;5.40;79.20;;;;;;5078235;28;20033;-87
2022/03/07 12:39:48;;;;;;;;;;;4.80;78.20;;;;;;5077615;28;19912;-88
2022/03/07 12:42:15;;;;;;;;;;;4.70;80.90;;;;;;5060706;28;20038;-87
2022/03/07 12:44:41;;;;;;;;;;;4.50;81.60;;;;;;5061095;28;20014;-87
2022/03/07 12:47:07;;;;;;;;;;;4.80;81.00;;;;;;5057298;28;19943;-89
2022/03/07 12:49:33;;;;;;;;;;;5.30;81.40;;;;;;5075704;28;20049;-85
2022/03/07 12:52:04;;;;;;;;;;;5.40;79.80;;;;;;5055906;28;19908;-86
2022/03/07 12:54:35;;;;;;;;;;;5.30;79.40;;;;;;5058728;28;19924;-84
2022/03/07 12:57:01;;;;;;;;;;;5.20;80.10;;;;;;5077730;28;19943;-85
2022/03/07 12:59:28;;;;;;;;;;;4.80;80.30;;;;;;5057730;28;19916;-84
2022/03/07 13:01:54;;;;;;;;;;;4.80;80.50;;;;;;5055275;28;20052;-85
2022/03/07 13:04:21;;;;;;;;;;;4.30;83.40;;;;;;5057700;28;19919;-86
2022/03/07 13:06:49;;;;;;;;;;;4.30;83.50;;;;;;5076426;28;20037;-86
2022/03/07 13:09:15;;;;;;;;;;;4.10;81.80;;;;;;5076129;28;19912;-84
2022/03/07 13:11:42;;;;;;;;;;;4.10;82.30;;;;;;5058820;28;20117;-85
2022/03/07 13:14:08;;;;;;;;;;;4.00;83.70;;;;;;5075198;28;20113;-84
2022/03/07 13:16:35;;;;;;;;;;;4.00;84.10;;;;;;5057449;28;19919;-87
2022/03/07 13:19:02;;;;;;;;;;;3.90;84.70;;;;;;5075281;28;19915;-84
2022/03/07 13:21:31;;;;;;;;;;;3.70;85.50;;;;;;5059017;28;19911;-84
2022/03/07 13:23:56;;;;;;;;;;;3.80;86.40;;;;;;5058328;28;19912;-84
2022/03/07 13:26:23;;;;;;;;;;;3.50;87.00;;;;;;5074441;28;20046;-84
2022/03/07 13:29:06;;;;;;;;;;;3.20;89.80;;;;;;5075619;28;20032;-86
2022/03/07 13:31:41;;;;;;;;;;;3.00;90.30;;;;;;5075992;28;19944;-85
2022/03/07 13:34:07;;;;;;;;;;;2.80;90.70;;;;;;5074752;28;20405;-81
2022/03/07 13:36:47;;;;;;;;;;;2.50;91.20;;;;;;5059317;28;20046;-87
2022/03/07 13:39:17;;;;;;;;;;;2.30;91.90;;;;;;5062166;28;20035;-86
2022/03/07 13:41:47;;;;;;;;;;;2.30;92.30;;;;;;5076134;28;20170;-84
2022/03/07 13:44:12;;;;;;;;;;;2.20;91.90;;;;;;5059003;28;20045;-86
2022/03/07 13:46:38;;;;;;;;;;;2.20;92.40;;;;;;5076476;28;20467;-87
2022/03/07 13:49:04;;;;;;;;;;;2.20;92.70;;;;;;5059618;28;19912;-84
2022/03/07 13:51:30;;;;;;;;;;;2.30;93.20;;;;;;5075282;28;20399;-85
2022/03/07 13:53:59;;;;;;;;;;;2.30;92.30;;;;;;5051912;28;20099;-85
2022/03/07 13:56:26;;;;;;;;;;;2.10;92.50;;;;;;5046115;28;19923;-87
2022/03/07 13:58:52;;;;;;;;;;;2.00;92.60;;;;;;5051977;28;19915;-87
2022/03/07 14:01:18;;;;;;;;;;;1.90;93.10;;;;;;5053923;28;19912;-86
2022/03/07 14:03:44;;;;;;;;;;;1.80;93.40;;;;;;5091497;28;20055;-85
2022/03/07 14:06:16;;;;;;;;;;;1.80;93.90;;;;;;5058368;28;19912;-83
2022/03/07 14:08:42;;;;;;;;;;;1.90;93.80;;;;;;5057481;28;20035;-87
2022/03/07 14:11:09;;;;;;;;;;;1.80;94.20;;;;;;5054455;28;20041;-86
2022/03/07 14:13:38;;;;;;;;;;;1.90;93.70;;;;;;5088848;28;20049;-85
2022/03/07 14:16:05;;;;;;;;;;;1.90;94.50;;;;;;5054462;28;20054;-86
2022/03/07 14:18:30;;;;;;;;;;;2.00;94.60;;;;;;5055197;28;20483;-84